sensor_id;sensor_type;location;lat;lon;timestamp;P1;durP1;ratioP1;P2;durP2;ratioP2
27357;SDS011;14831;50.474;7.616;2022-09-09T00:05:00;0.4;;;0.4;;
27357;SDS011;14831;50.474;7.616;2022-09-09T00:10:08;0.4;;;0.4;;
27357;SDS011;14831;50.474;7.616;2022-09-09T00:15:02;0.4;;;0.4;;
27357;SDS011;14831;50.474;7.616;2022-09-09T00:20:02;0.3;;;0.3;;
27357;SDS011;14831;50.474;7.616;2022-09-09T00:25:04;0.3;;;0.3;;
27357;SDS011;14831;50.474;7.616;2022-09-09T00:30:11;0.3;;;0.3;;
27357;SDS011;14831;50.474;7.616;2022-09-09T00:35:03;0.3;;;0.3;;
27357;SDS011;14831;50.474;7.616;2022-09-09T00:40:00;0.3;;;0.3;;
27357;SDS011;14831;50.474;7.616;2022-09-09T00:45:01;0.3;;;0.3;;
27357;SDS011;14831;50.474;7.616;2022-09-09T00:50:00;0.5;;;0.4;;
27357;SDS011;14831;50.474;7.616;2022-09-09T00:55:05;0.5;;;0.4;;
27357;SDS011;14831;50.474;7.616;2022-09-09T01:00:15;0.5;;;0.4;;
27357;SDS011;14831;50.474;7.616;2022-09-09T01:05:05;0.5;;;0.4;;
27357;SDS011;14831;50.474;7.616;2022-09-09T01:09:59;0.5;;;0.4;;
27357;SDS011;14831;50.474;7.616;2022-09-09T01:15:07;0.5;;;0.4;;
27357;SDS011;14831;50.474;7.616;2022-09-09T01:20:05;0.8;;;0.4;;
27357;SDS011;14831;50.474;7.616;2022-09-09T01:25:15;0.8;;;0.4;;
27357;SDS011;14831;50.474;7.616;2022-09-09T01:29:58;0.8;;;0.4;;
27357;SDS011;14831;50.474;7.616;2022-09-09T01:34:58;0.8;;;0.4;;
27357;SDS011;14831;50.474;7.616;2022-09-09T01:39:58;0.8;;;0.4;;
27357;SDS011;14831;50.474;7.616;2022-09-09T01:44:58;0.8;;;0.4;;
27357;SDS011;14831;50.474;7.616;2022-09-09T01:49:58;1.1;;;0.4;;
27357;SDS011;14831;50.474;7.616;2022-09-09T01:54:58;1.1;;;0.4;;
27357;SDS011;14831;50.474;7.616;2022-09-09T02:00:03;1.1;;;0.4;;
27357;SDS011;14831;50.474;7.616;2022-09-09T02:05:07;1.1;;;0.4;;
27357;SDS011;14831;50.474;7.616;2022-09-09T02:10:03;1.1;;;0.4;;
27357;SDS011;14831;50.474;7.616;2022-09-09T02:15:02;1.1;;;0.4;;
27357;SDS011;14831;50.474;7.616;2022-09-09T02:20:03;0.3;;;0.3;;
27357;SDS011;14831;50.474;7.616;2022-09-09T02:24:59;0.3;;;0.3;;
27357;SDS011;14831;50.474;7.616;2022-09-09T02:30:00;0.3;;;0.3;;
27357;SDS011;14831;50.474;7.616;2022-09-09T02:35:03;0.3;;;0.3;;
27357;SDS011;14831;50.474;7.616;2022-09-09T02:39:58;0.3;;;0.3;;
27357;SDS011;14831;50.474;7.616;2022-09-09T02:44:58;0.3;;;0.3;;
27357;SDS011;14831;50.474;7.616;2022-09-09T02:50:06;0.7;;;0.4;;
27357;SDS011;14831;50.474;7.616;2022-09-09T02:55:05;0.7;;;0.4;;
27357;SDS011;14831;50.474;7.616;2022-09-09T02:59:58;0.7;;;0.4;;
27357;SDS011;14831;50.474;7.616;2022-09-09T03:04:58;0.7;;;0.4;;
27357;SDS011;14831;50.474;7.616;2022-09-09T03:09:58;0.7;;;0.4;;
27357;SDS011;14831;50.474;7.616;2022-09-09T03:14:58;0.7;;;0.4;;
27357;SDS011;14831;50.474;7.616;2022-09-09T03:19:58;0.4;;;0.4;;
27357;SDS011;14831;50.474;7.616;2022-09-09T03:24:58;0.4;;;0.4;;
27357;SDS011;14831;50.474;7.616;2022-09-09T03:29:58;0.4;;;0.4;;
27357;SDS011;14831;50.474;7.616;2022-09-09T03:34:58;0.4;;;0.4;;
27357;SDS011;14831;50.474;7.616;2022-09-09T03:39:58;0.4;;;0.4;;
27357;SDS011;14831;50.474;7.616;2022-09-09T03:44:58;0.4;;;0.4;;
27357;SDS011;14831;50.474;7.616;2022-09-09T03:49:58;1.2;;;0.4;;
27357;SDS011;14831;50.474;7.616;2022-09-09T03:54:58;1.2;;;0.4;;
27357;SDS011;14831;50.474;7.616;2022-09-09T03:59:58;1.2;;;0.4;;
27357;SDS011;14831;50.474;7.616;2022-09-09T04:04:58;1.2;;;0.4;;
27357;SDS011;14831;50.474;7.616;2022-09-09T04:09:58;1.2;;;0.4;;
27357;SDS011;14831;50.474;7.616;2022-09-09T04:14:59;1.2;;;0.4;;
27357;SDS011;14831;50.474;7.616;2022-09-09T04:19:58;0.8;;;0.4;;
27357;SDS011;14831;50.474;7.616;2022-09-09T04:24:58;0.8;;;0.4;;
27357;SDS011;14831;50.474;7.616;2022-09-09T04:29:58;0.8;;;0.4;;
27357;SDS011;14831;50.474;7.616;2022-09-09T04:34:58;0.8;;;0.4;;
27357;SDS011;14831;50.474;7.616;2022-09-09T04:39:58;0.8;;;0.4;;
27357;SDS011;14831;50.474;7.616;2022-09-09T04:44:58;0.8;;;0.4;;
27357;SDS011;14831;50.474;7.616;2022-09-09T04:49:58;0.6;;;0.3;;
27357;SDS011;14831;50.474;7.616;2022-09-09T04:54:58;0.6;;;0.3;;
27357;SDS011;14831;50.474;7.616;2022-09-09T04:59:58;0.6;;;0.3;;
27357;SDS011;14831;50.474;7.616;2022-09-09T05:04:58;0.6;;;0.3;;
27357;SDS011;14831;50.474;7.616;2022-09-09T05:09:58;0.6;;;0.3;;
27357;SDS011;14831;50.474;7.616;2022-09-09T05:14:58;0.6;;;0.3;;
27357;SDS011;14831;50.474;7.616;2022-09-09T05:19:58;0.7;;;0.3;;
27357;SDS011;14831;50.474;7.616;2022-09-09T05:24:58;0.7;;;0.3;;
27357;SDS011;14831;50.474;7.616;2022-09-09T05:29:58;0.7;;;0.3;;
27357;SDS011;14831;50.474;7.616;2022-09-09T05:34:58;0.7;;;0.3;;
27357;SDS011;14831;50.474;7.616;2022-09-09T05:39:58;0.7;;;0.3;;
27357;SDS011;14831;50.474;7.616;2022-09-09T05:44:58;0.7;;;0.3;;
27357;SDS011;14831;50.474;7.616;2022-09-09T05:49:58;0.4;;;0.3;;
27357;SDS011;14831;50.474;7.616;2022-09-09T05:54:58;0.4;;;0.3;;
27357;SDS011;14831;50.474;7.616;2022-09-09T05:59:58;0.4;;;0.3;;
27357;SDS011;14831;50.474;7.616;2022-09-09T06:04:58;0.4;;;0.3;;
27357;SDS011;14831;50.474;7.616;2022-09-09T06:09:58;0.4;;;0.3;;
27357;SDS011;14831;50.474;7.616;2022-09-09T06:14:58;0.4;;;0.3;;
27357;SDS011;14831;50.474;7.616;2022-09-09T06:19:58;0.9;;;0.3;;
27357;SDS011;14831;50.474;7.616;2022-09-09T06:24:58;0.9;;;0.3;;
27357;SDS011;14831;50.474;7.616;2022-09-09T06:29:58;0.9;;;0.3;;
27357;SDS011;14831;50.474;7.616;2022-09-09T06:34:58;0.9;;;0.3;;
27357;SDS011;14831;50.474;7.616;2022-09-09T06:39:58;0.9;;;0.3;;
27357;SDS011;14831;50.474;7.616;2022-09-09T06:44:58;0.9;;;0.3;;
27357;SDS011;14831;50.474;7.616;2022-09-09T06:49:59;1.0;;;0.6;;
27357;SDS011;14831;50.474;7.616;2022-09-09T06:54:58;1.0;;;0.6;;
27357;SDS011;14831;50.474;7.616;2022-09-09T06:59:58;1.0;;;0.6;;
27357;SDS011;14831;50.474;7.616;2022-09-09T07:04:58;1.0;;;0.6;;
27357;SDS011;14831;50.474;7.616;2022-09-09T07:09:58;1.0;;;0.6;;
27357;SDS011;14831;50.474;7.616;2022-09-09T07:14:58;1.0;;;0.6;;
27357;SDS011;14831;50.474;7.616;2022-09-09T07:19:58;1.6;;;0.7;;
27357;SDS011;14831;50.474;7.616;2022-09-09T07:24:58;1.6;;;0.7;;
27357;SDS011;14831;50.474;7.616;2022-09-09T07:29:58;1.6;;;0.7;;
27357;SDS011;14831;50.474;7.616;2022-09-09T07:34:58;1.6;;;0.7;;
27357;SDS011;14831;50.474;7.616;2022-09-09T07:39:58;1.6;;;0.7;;
27357;SDS011;14831;50.474;7.616;2022-09-09T07:44:58;1.6;;;0.7;;
27357;SDS011;14831;50.474;7.616;2022-09-09T07:49:58;3.9;;;1.1;;
27357;SDS011;14831;50.474;7.616;2022-09-09T07:54:58;3.9;;;1.1;;
27357;SDS011;14831;50.474;7.616;2022-09-09T07:59:58;3.9;;;1.1;;
27357;SDS011;14831;50.474;7.616;2022-09-09T08:04:58;3.9;;;1.1;;
27357;SDS011;14831;50.474;7.616;2022-09-09T08:09:58;3.9;;;1.1;;
27357;SDS011;14831;50.474;7.616;2022-09-09T08:14:58;3.9;;;1.1;;
27357;SDS011;14831;50.474;7.616;2022-09-09T08:19:58;3.3;;;1.2;;
27357;SDS011;14831;50.474;7.616;2022-09-09T08:24:58;3.3;;;1.2;;
27357;SDS011;14831;50.474;7.616;2022-09-09T08:29:58;3.3;;;1.2;;
27357;SDS011;14831;50.474;7.616;2022-09-09T08:34:58;3.3;;;1.2;;
27357;SDS011;14831;50.474;7.616;2022-09-09T08:39:58;3.3;;;1.2;;
27357;SDS011;14831;50.474;7.616;2022-09-09T08:45:09;3.3;;;1.2;;
27357;SDS011;14831;50.474;7.616;2022-09-09T08:50:16;3.3;;;1.2;;
27357;SDS011;14831;50.474;7.616;2022-09-09T08:55:03;3.3;;;1.2;;
27357;SDS011;14831;50.474;7.616;2022-09-09T08:59:58;3.3;;;1.2;;
27357;SDS011;14831;50.474;7.616;2022-09-09T09:05:07;3.3;;;1.2;;
27357;SDS011;14831;50.474;7.616;2022-09-09T09:10:03;3.3;;;1.2;;
27357;SDS011;14831;50.474;7.616;2022-09-09T09:14:59;3.3;;;1.2;;
27357;SDS011;14831;50.474;7.616;2022-09-09T09:19:58;5.2;;;1.2;;
27357;SDS011;14831;50.474;7.616;2022-09-09T09:25:04;5.2;;;1.2;;
27357;SDS011;14831;50.474;7.616;2022-09-09T09:30:00;5.2;;;1.2;;
27357;SDS011;14831;50.474;7.616;2022-09-09T09:34:58;5.2;;;1.2;;
27357;SDS011;14831;50.474;7.616;2022-09-09T09:40:08;5.2;;;1.2;;
27357;SDS011;14831;50.474;7.616;2022-09-09T09:45:07;5.2;;;1.2;;
27357;SDS011;14831;50.474;7.616;2022-09-09T09:49:59;5.1;;;1.1;;
27357;SDS011;14831;50.474;7.616;2022-09-09T09:54:59;5.1;;;1.1;;
27357;SDS011;14831;50.474;7.616;2022-09-09T10:00:04;5.1;;;1.1;;
27357;SDS011;14831;50.474;7.616;2022-09-09T10:05:03;5.1;;;1.1;;
27357;SDS011;14831;50.474;7.616;2022-09-09T10:09:58;5.1;;;1.1;;
27357;SDS011;14831;50.474;7.616;2022-09-09T10:15:02;5.1;;;1.1;;
27357;SDS011;14831;50.474;7.616;2022-09-09T10:20:13;3.3;;;1.2;;
27357;SDS011;14831;50.474;7.616;2022-09-09T10:25:11;3.3;;;1.2;;
27357;SDS011;14831;50.474;7.616;2022-09-09T10:30:04;3.3;;;1.2;;
27357;SDS011;14831;50.474;7.616;2022-09-09T10:35:02;3.3;;;1.2;;
27357;SDS011;14831;50.474;7.616;2022-09-09T10:40:03;3.3;;;1.2;;
27357;SDS011;14831;50.474;7.616;2022-09-09T10:45:13;3.3;;;1.2;;
27357;SDS011;14831;50.474;7.616;2022-09-09T10:50:13;2.5;;;1.1;;
27357;SDS011;14831;50.474;7.616;2022-09-09T10:55:00;2.5;;;1.1;;
27357;SDS011;14831;50.474;7.616;2022-09-09T11:00:03;2.5;;;1.1;;
27357;SDS011;14831;50.474;7.616;2022-09-09T11:05:02;2.5;;;1.1;;
27357;SDS011;14831;50.474;7.616;2022-09-09T11:10:02;2.5;;;1.1;;
27357;SDS011;14831;50.474;7.616;2022-09-09T11:15:03;2.5;;;1.1;;
27357;SDS011;14831;50.474;7.616;2022-09-09T11:19:58;3.4;;;1.1;;
27357;SDS011;14831;50.474;7.616;2022-09-09T11:25:00;3.4;;;1.1;;
27357;SDS011;14831;50.474;7.616;2022-09-09T11:30:16;3.4;;;1.1;;
27357;SDS011;14831;50.474;7.616;2022-09-09T11:35:05;3.4;;;1.1;;
27357;SDS011;14831;50.474;7.616;2022-09-09T11:40:30;3.4;;;1.1;;
27357;SDS011;14831;50.474;7.616;2022-09-09T11:45:09;3.4;;;1.1;;
27357;SDS011;14831;50.474;7.616;2022-09-09T11:50:09;3.3;;;1.3;;
27357;SDS011;14831;50.474;7.616;2022-09-09T11:55:09;3.3;;;1.3;;
27357;SDS011;14831;50.474;7.616;2022-09-09T11:59:58;3.3;;;1.3;;
27357;SDS011;14831;50.474;7.616;2022-09-09T12:05:02;3.3;;;1.3;;
27357;SDS011;14831;50.474;7.616;2022-09-09T12:10:02;3.3;;;1.3;;
27357;SDS011;14831;50.474;7.616;2022-09-09T12:15:01;3.3;;;1.3;;
27357;SDS011;14831;50.474;7.616;2022-09-09T12:20:01;2.5;;;1.0;;
27357;SDS011;14831;50.474;7.616;2022-09-09T12:25:03;2.5;;;1.0;;
27357;SDS011;14831;50.474;7.616;2022-09-09T12:30:02;2.5;;;1.0;;
27357;SDS011;14831;50.474;7.616;2022-09-09T12:35:00;2.5;;;1.0;;
27357;SDS011;14831;50.474;7.616;2022-09-09T12:39:59;2.5;;;1.0;;
27357;SDS011;14831;50.474;7.616;2022-09-09T12:44:59;2.5;;;1.0;;
27357;SDS011;14831;50.474;7.616;2022-09-09T12:49:58;3.4;;;1.5;;
27357;SDS011;14831;50.474;7.616;2022-09-09T12:55:00;3.4;;;1.5;;
27357;SDS011;14831;50.474;7.616;2022-09-09T13:00:06;3.4;;;1.5;;
27357;SDS011;14831;50.474;7.616;2022-09-09T13:05:08;3.4;;;1.5;;
27357;SDS011;14831;50.474;7.616;2022-09-09T13:09:58;3.4;;;1.5;;
27357;SDS011;14831;50.474;7.616;2022-09-09T13:14:58;3.4;;;1.5;;
27357;SDS011;14831;50.474;7.616;2022-09-09T13:19:58;6.1;;;1.7;;
27357;SDS011;14831;50.474;7.616;2022-09-09T13:25:00;6.1;;;1.7;;
27357;SDS011;14831;50.474;7.616;2022-09-09T13:29:58;6.1;;;1.7;;
27357;SDS011;14831;50.474;7.616;2022-09-09T13:35:00;6.1;;;1.7;;
27357;SDS011;14831;50.474;7.616;2022-09-09T13:39:58;6.1;;;1.7;;
27357;SDS011;14831;50.474;7.616;2022-09-09T13:44:59;6.1;;;1.7;;
27357;SDS011;14831;50.474;7.616;2022-09-09T13:49:58;2.0;;;1.1;;
27357;SDS011;14831;50.474;7.616;2022-09-09T13:54:58;2.0;;;1.1;;
27357;SDS011;14831;50.474;7.616;2022-09-09T13:59:58;2.0;;;1.1;;
27357;SDS011;14831;50.474;7.616;2022-09-09T14:04:58;2.0;;;1.1;;
27357;SDS011;14831;50.474;7.616;2022-09-09T14:09:58;2.0;;;1.1;;
27357;SDS011;14831;50.474;7.616;2022-09-09T14:14:58;2.0;;;1.1;;
27357;SDS011;14831;50.474;7.616;2022-09-09T14:19:58;2.6;;;1.1;;
27357;SDS011;14831;50.474;7.616;2022-09-09T14:24:58;2.6;;;1.1;;
27357;SDS011;14831;50.474;7.616;2022-09-09T14:29:58;2.6;;;1.1;;
27357;SDS011;14831;50.474;7.616;2022-09-09T14:34:58;2.6;;;1.1;;
27357;SDS011;14831;50.474;7.616;2022-09-09T14:39:58;2.6;;;1.1;;
27357;SDS011;14831;50.474;7.616;2022-09-09T14:44:58;2.6;;;1.1;;
27357;SDS011;14831;50.474;7.616;2022-09-09T14:49:58;5.8;;;2.2;;
27357;SDS011;14831;50.474;7.616;2022-09-09T14:54:58;5.8;;;2.2;;
27357;SDS011;14831;50.474;7.616;2022-09-09T14:59:58;5.8;;;2.2;;
27357;SDS011;14831;50.474;7.616;2022-09-09T15:04:58;5.8;;;2.2;;
27357;SDS011;14831;50.474;7.616;2022-09-09T15:09:58;5.8;;;2.2;;
27357;SDS011;14831;50.474;7.616;2022-09-09T15:14:58;5.8;;;2.2;;
27357;SDS011;14831;50.474;7.616;2022-09-09T15:19:58;2.1;;;0.9;;
27357;SDS011;14831;50.474;7.616;2022-09-09T15:24:58;2.1;;;0.9;;
27357;SDS011;14831;50.474;7.616;2022-09-09T15:29:58;2.1;;;0.9;;
27357;SDS011;14831;50.474;7.616;2022-09-09T15:34:58;2.1;;;0.9;;
27357;SDS011;14831;50.474;7.616;2022-09-09T15:39:58;2.1;;;0.9;;
27357;SDS011;14831;50.474;7.616;2022-09-09T15:44:58;2.1;;;0.9;;
27357;SDS011;14831;50.474;7.616;2022-09-09T15:49:58;1.6;;;0.5;;
27357;SDS011;14831;50.474;7.616;2022-09-09T15:54:58;1.6;;;0.5;;
27357;SDS011;14831;50.474;7.616;2022-09-09T15:59:58;1.6;;;0.5;;
27357;SDS011;14831;50.474;7.616;2022-09-09T16:04:58;1.6;;;0.5;;
27357;SDS011;14831;50.474;7.616;2022-09-09T16:09:58;1.6;;;0.5;;
27357;SDS011;14831;50.474;7.616;2022-09-09T16:14:58;1.6;;;0.5;;
27357;SDS011;14831;50.474;7.616;2022-09-09T16:19:58;3.5;;;0.9;;
27357;SDS011;14831;50.474;7.616;2022-09-09T16:24:58;3.5;;;0.9;;
27357;SDS011;14831;50.474;7.616;2022-09-09T16:29:58;3.5;;;0.9;;
27357;SDS011;14831;50.474;7.616;2022-09-09T16:34:58;3.5;;;0.9;;
27357;SDS011;14831;50.474;7.616;2022-09-09T16:39:58;3.5;;;0.9;;
27357;SDS011;14831;50.474;7.616;2022-09-09T16:44:58;3.5;;;0.9;;
27357;SDS011;14831;50.474;7.616;2022-09-09T16:49:58;3.9;;;1.2;;
27357;SDS011;14831;50.474;7.616;2022-09-09T16:54:58;3.9;;;1.2;;
27357;SDS011;14831;50.474;7.616;2022-09-09T16:59:58;3.9;;;1.2;;
27357;SDS011;14831;50.474;7.616;2022-09-09T17:04:59;3.9;;;1.2;;
27357;SDS011;14831;50.474;7.616;2022-09-09T17:09:58;3.9;;;1.2;;
27357;SDS011;14831;50.474;7.616;2022-09-09T17:14:58;3.9;;;1.2;;
27357;SDS011;14831;50.474;7.616;2022-09-09T17:19:58;2.1;;;1.3;;
27357;SDS011;14831;50.474;7.616;2022-09-09T17:24:58;2.1;;;1.3;;
27357;SDS011;14831;50.474;7.616;2022-09-09T17:29:58;2.1;;;1.3;;
27357;SDS011;14831;50.474;7.616;2022-09-09T17:34:58;2.1;;;1.3;;
27357;SDS011;14831;50.474;7.616;2022-09-09T17:39:58;2.1;;;1.3;;
27357;SDS011;14831;50.474;7.616;2022-09-09T17:44:58;2.1;;;1.3;;
27357;SDS011;14831;50.474;7.616;2022-09-09T17:49:58;2.0;;;1.2;;
27357;SDS011;14831;50.474;7.616;2022-09-09T17:54:58;2.0;;;1.2;;
27357;SDS011;14831;50.474;7.616;2022-09-09T17:59:58;2.0;;;1.2;;
27357;SDS011;14831;50.474;7.616;2022-09-09T18:04:58;2.0;;;1.2;;
27357;SDS011;14831;50.474;7.616;2022-09-09T18:09:58;2.0;;;1.2;;
27357;SDS011;14831;50.474;7.616;2022-09-09T18:14:58;2.0;;;1.2;;
27357;SDS011;14831;50.474;7.616;2022-09-09T18:19:58;1.5;;;0.8;;
27357;SDS011;14831;50.474;7.616;2022-09-09T18:24:58;1.5;;;0.8;;
27357;SDS011;14831;50.474;7.616;2022-09-09T18:29:58;1.5;;;0.8;;
27357;SDS011;14831;50.474;7.616;2022-09-09T18:34:58;1.5;;;0.8;;
27357;SDS011;14831;50.474;7.616;2022-09-09T18:39:58;1.5;;;0.8;;
27357;SDS011;14831;50.474;7.616;2022-09-09T18:44:58;1.5;;;0.8;;
27357;SDS011;14831;50.474;7.616;2022-09-09T18:49:58;2.3;;;1.0;;
27357;SDS011;14831;50.474;7.616;2022-09-09T18:54:58;2.3;;;1.0;;
27357;SDS011;14831;50.474;7.616;2022-09-09T18:59:58;2.3;;;1.0;;
27357;SDS011;14831;50.474;7.616;2022-09-09T19:04:58;2.3;;;1.0;;
27357;SDS011;14831;50.474;7.616;2022-09-09T19:09:58;2.3;;;1.0;;
27357;SDS011;14831;50.474;7.616;2022-09-09T19:14:58;2.3;;;1.0;;
27357;SDS011;14831;50.474;7.616;2022-09-09T19:19:58;1.6;;;0.8;;
27357;SDS011;14831;50.474;7.616;2022-09-09T19:24:58;1.6;;;0.8;;
27357;SDS011;14831;50.474;7.616;2022-09-09T19:29:58;1.6;;;0.8;;
27357;SDS011;14831;50.474;7.616;2022-09-09T19:34:59;1.6;;;0.8;;
27357;SDS011;14831;50.474;7.616;2022-09-09T19:39:58;1.6;;;0.8;;
27357;SDS011;14831;50.474;7.616;2022-09-09T19:44:58;1.6;;;0.8;;
27357;SDS011;14831;50.474;7.616;2022-09-09T19:49:58;2.2;;;0.9;;
27357;SDS011;14831;50.474;7.616;2022-09-09T19:54:58;2.2;;;0.9;;
27357;SDS011;14831;50.474;7.616;2022-09-09T19:59:58;2.2;;;0.9;;
27357;SDS011;14831;50.474;7.616;2022-09-09T20:04:58;2.2;;;0.9;;
27357;SDS011;14831;50.474;7.616;2022-09-09T20:09:58;2.2;;;0.9;;
27357;SDS011;14831;50.474;7.616;2022-09-09T20:14:58;2.2;;;0.9;;
27357;SDS011;14831;50.474;7.616;2022-09-09T20:19:58;1.4;;;0.9;;
27357;SDS011;14831;50.474;7.616;2022-09-09T20:24:58;1.4;;;0.9;;
27357;SDS011;14831;50.474;7.616;2022-09-09T20:29:58;1.4;;;0.9;;
27357;SDS011;14831;50.474;7.616;2022-09-09T20:34:58;1.4;;;0.9;;
27357;SDS011;14831;50.474;7.616;2022-09-09T20:39:58;1.4;;;0.9;;
27357;SDS011;14831;50.474;7.616;2022-09-09T20:44:58;1.4;;;0.9;;
27357;SDS011;14831;50.474;7.616;2022-09-09T20:49:58;2.5;;;0.9;;
27357;SDS011;14831;50.474;7.616;2022-09-09T20:54:58;2.5;;;0.9;;
27357;SDS011;14831;50.474;7.616;2022-09-09T20:59:58;2.5;;;0.9;;
27357;SDS011;14831;50.474;7.616;2022-09-09T21:04:58;2.5;;;0.9;;
27357;SDS011;14831;50.474;7.616;2022-09-09T21:09:58;2.5;;;0.9;;
27357;SDS011;14831;50.474;7.616;2022-09-09T21:14:58;2.5;;;0.9;;
27357;SDS011;14831;50.474;7.616;2022-09-09T21:19:58;1.1;;;0.9;;
27357;SDS011;14831;50.474;7.616;2022-09-09T21:24:58;1.1;;;0.9;;
27357;SDS011;14831;50.474;7.616;2022-09-09T21:29:58;1.1;;;0.9;;
27357;SDS011;14831;50.474;7.616;2022-09-09T21:34:58;1.1;;;0.9;;
27357;SDS011;14831;50.474;7.616;2022-09-09T21:39:58;1.1;;;0.9;;
27357;SDS011;14831;50.474;7.616;2022-09-09T21:44:58;1.1;;;0.9;;
27357;SDS011;14831;50.474;7.616;2022-09-09T21:49:58;2.0;;;1.1;;
27357;SDS011;14831;50.474;7.616;2022-09-09T21:54:58;2.0;;;1.1;;
27357;SDS011;14831;50.474;7.616;2022-09-09T21:59:58;2.0;;;1.1;;
27357;SDS011;14831;50.474;7.616;2022-09-09T22:04:58;2.0;;;1.1;;
27357;SDS011;14831;50.474;7.616;2022-09-09T22:09:58;2.0;;;1.1;;
27357;SDS011;14831;50.474;7.616;2022-09-09T22:14:58;2.0;;;1.1;;
27357;SDS011;14831;50.474;7.616;2022-09-09T22:19:59;3.4;;;0.9;;
27357;SDS011;14831;50.474;7.616;2022-09-09T22:24:58;3.4;;;0.9;;
27357;SDS011;14831;50.474;7.616;2022-09-09T22:29:58;3.4;;;0.9;;
27357;SDS011;14831;50.474;7.616;2022-09-09T22:34:58;3.4;;;0.9;;
27357;SDS011;14831;50.474;7.616;2022-09-09T22:39:58;3.4;;;0.9;;
27357;SDS011;14831;50.474;7.616;2022-09-09T22:44:58;3.4;;;0.9;;
27357;SDS011;14831;50.474;7.616;2022-09-09T22:49:58;1.5;;;1.0;;
27357;SDS011;14831;50.474;7.616;2022-09-09T22:54:58;1.5;;;1.0;;
27357;SDS011;14831;50.474;7.616;2022-09-09T22:59:58;1.5;;;1.0;;
27357;SDS011;14831;50.474;7.616;2022-09-09T23:04:58;1.5;;;1.0;;
27357;SDS011;14831;50.474;7.616;2022-09-09T23:09:58;1.5;;;1.0;;
27357;SDS011;14831;50.474;7.616;2022-09-09T23:14:58;1.5;;;1.0;;
27357;SDS011;14831;50.474;7.616;2022-09-09T23:19:58;2.3;;;1.2;;
27357;SDS011;14831;50.474;7.616;2022-09-09T23:24:58;2.3;;;1.2;;
27357;SDS011;14831;50.474;7.616;2022-09-09T23:29:58;2.3;;;1.2;;
27357;SDS011;14831;50.474;7.616;2022-09-09T23:34:58;2.3;;;1.2;;
27357;SDS011;14831;50.474;7.616;2022-09-09T23:39:58;2.3;;;1.2;;
27357;SDS011;14831;50.474;7.616;2022-09-09T23:44:58;2.3;;;1.2;;
27357;SDS011;14831;50.474;7.616;2022-09-09T23:49:58;1.6;;;1.2;;
27357;SDS011;14831;50.474;7.616;2022-09-09T23:54:58;1.6;;;1.2;;
27357;SDS011;14831;50.474;7.616;2022-09-09T23:59:58;1.6;;;1.2;;
